createdAt,value
2023-02-23T00:01:35.286Z,36.17
2023-02-23T00:04:02.790Z,39.37
2023-02-23T00:06:31.240Z,38.63
2023-02-23T00:09:01.073Z,37.80
2023-02-23T00:11:28.472Z,39.30
2023-02-23T00:13:56.806Z,39.87
2023-02-23T00:16:25.052Z,41.53
2023-02-23T00:18:53.932Z,40.17
2023-02-23T00:21:23.111Z,41.07
2023-02-23T00:23:54.999Z,40.77
2023-02-23T00:26:24.690Z,39.43
2023-02-23T00:28:53.637Z,40.60
2023-02-23T00:31:25.773Z,40.20
2023-02-23T00:33:54.190Z,42.33
2023-02-23T00:36:23.058Z,42.00
2023-02-23T00:38:53.448Z,42.83
2023-02-23T00:41:23.812Z,39.60
2023-02-23T00:43:50.410Z,40.67
2023-02-23T00:46:19.020Z,41.97
2023-02-23T00:48:45.907Z,41.20
2023-02-23T00:51:12.993Z,41.27
2023-02-23T00:53:41.471Z,42.27
2023-02-23T00:56:09.476Z,41.00
2023-02-23T00:58:36.320Z,43.20
2023-02-23T01:01:06.894Z,43.57
2023-02-23T01:03:33.836Z,44.30
2023-02-23T01:06:05.545Z,43.80
2023-02-23T01:08:34.374Z,42.60
2023-02-23T01:11:07.003Z,45.40
2023-02-23T01:13:33.503Z,44.23
2023-02-23T01:16:00.099Z,44.10
2023-02-23T01:18:27.032Z,46.47
2023-02-23T01:20:54.107Z,45.57
2023-02-23T01:23:21.776Z,45.60
2023-02-23T01:25:48.390Z,44.83
2023-02-23T01:28:14.876Z,46.27
2023-02-23T01:30:41.989Z,48.40
2023-02-23T01:33:09.222Z,47.23
2023-02-23T01:35:35.692Z,49.57
2023-02-23T01:38:03.641Z,48.43
2023-02-23T01:40:31.667Z,48.10
2023-02-23T01:43:26.484Z,49.17
2023-02-23T01:45:58.103Z,48.27
2023-02-23T01:48:32.731Z,50.47
2023-02-23T01:51:05.277Z,50.97
2023-02-23T01:53:35.359Z,49.67
2023-02-23T01:56:11.224Z,50.43
2023-02-23T01:58:43.627Z,52.27
2023-02-23T02:01:11.301Z,52.40
2023-02-23T02:03:48.782Z,52.80
2023-02-23T02:06:18.598Z,50.60
2023-02-23T02:08:48.550Z,55.07
2023-02-23T02:11:30.716Z,53.60
2023-02-23T02:14:00.163Z,51.30
2023-02-23T02:16:34.412Z,55.03
2023-02-23T02:19:23.536Z,55.87
2023-02-23T02:22:11.755Z,55.37
2023-02-23T02:24:52.353Z,54.70
2023-02-23T02:27:28.809Z,53.83
2023-02-23T02:30:13.963Z,56.93
2023-02-23T02:33:04.686Z,59.07
2023-02-23T02:35:49.562Z,63.23
2023-02-23T02:38:34.477Z,57.07
2023-02-23T02:41:14.255Z,61.50
2023-02-23T02:43:42.886Z,57.73
2023-02-23T02:46:21.185Z,57.60
2023-02-23T02:48:57.666Z,57.53
2023-02-23T02:51:28.596Z,56.37
2023-02-23T02:54:11.128Z,55.53
2023-02-23T02:56:40.504Z,58.83
2023-02-23T02:59:31.436Z,56.27
2023-02-23T03:02:17.068Z,57.90
2023-02-23T03:05:02.733Z,60.10
2023-02-23T03:08:07.113Z,58.60
2023-02-23T03:11:14.290Z,58.33
2023-02-23T03:14:30.773Z,56.97
2023-02-23T03:17:25.144Z,57.07
2023-02-23T03:20:33.312Z,60.20
2023-02-23T03:23:30.462Z,62.20
2023-02-23T03:26:26.995Z,58.87
2023-02-23T03:29:23.566Z,60.00
2023-02-23T03:32:32.164Z,60.87
2023-02-23T03:35:31.517Z,60.60
2023-02-23T03:38:41.251Z,61.17
2023-02-23T03:41:27.414Z,59.70
2023-02-23T03:44:17.060Z,61.77
2023-02-23T03:47:03.715Z,61.13
2023-02-23T03:49:53.264Z,62.57
2023-02-23T03:52:53.786Z,58.40
2023-02-23T03:55:46.379Z,58.33
2023-02-23T03:58:36.615Z,60.77
2023-02-23T04:01:23.267Z,63.43
2023-02-23T04:04:09.905Z,59.33
2023-02-23T04:06:57.172Z,62.83
2023-02-23T04:09:42.284Z,65.77
2023-02-23T04:12:31.879Z,61.03
2023-02-23T04:15:05.086Z,60.53
2023-02-23T04:17:31.545Z,61.63
2023-02-23T04:19:58.313Z,62.63
2023-02-23T04:22:25.198Z,59.97
2023-02-23T04:24:51.791Z,60.67
2023-02-23T04:27:18.727Z,63.00
2023-02-23T04:29:45.272Z,60.90
2023-02-23T04:32:17.133Z,61.50
2023-02-23T04:34:44.699Z,60.90
2023-02-23T04:37:11.732Z,60.80
2023-02-23T04:39:38.236Z,64.57
2023-02-23T04:42:05.508Z,62.63
2023-02-23T04:44:31.967Z,58.43
2023-02-23T04:46:58.444Z,64.97
2023-02-23T04:49:25.117Z,63.07
2023-02-23T04:51:51.653Z,64.00
2023-02-23T04:54:18.283Z,63.40
2023-02-23T04:56:44.826Z,62.67
2023-02-23T04:59:11.304Z,63.30
2023-02-23T05:01:37.900Z,63.97
2023-02-23T05:04:04.913Z,69.60
2023-02-23T05:06:31.995Z,63.87
2023-02-23T05:08:58.487Z,63.93
2023-02-23T05:11:26.562Z,65.47
2023-02-23T05:13:54.576Z,63.50
2023-02-23T05:16:21.540Z,67.67
2023-02-23T05:18:48.538Z,68.67
2023-02-23T05:21:15.271Z,69.77
2023-02-23T05:23:41.832Z,65.80
2023-02-23T05:26:10.948Z,64.93
2023-02-23T05:28:39.262Z,61.97
2023-02-23T05:31:06.135Z,68.57
2023-02-23T05:33:33.874Z,60.43
2023-02-23T05:36:00.750Z,64.87
2023-02-23T05:38:27.429Z,66.33
2023-02-23T05:40:54.161Z,65.30
2023-02-23T05:43:21.284Z,64.90
2023-02-23T05:45:47.799Z,64.57
2023-02-23T05:48:14.499Z,62.47
2023-02-23T05:50:41.033Z,66.87
2023-02-23T05:53:07.821Z,63.73
2023-02-23T05:55:35.949Z,64.90
2023-02-23T05:58:02.436Z,62.87
2023-02-23T06:00:28.900Z,66.83
2023-02-23T06:02:55.593Z,62.73
2023-02-23T06:05:22.086Z,65.23
2023-02-23T06:07:48.570Z,65.37
2023-02-23T06:10:15.184Z,66.13
2023-02-23T06:12:41.744Z,63.70
2023-02-23T06:15:08.762Z,59.30
2023-02-23T06:17:36.183Z,68.30
2023-02-23T06:20:04.861Z,63.23
2023-02-23T06:22:31.739Z,64.20
2023-02-23T06:24:58.335Z,64.83
2023-02-23T06:27:24.907Z,65.67
2023-02-23T06:29:51.376Z,68.63
2023-02-23T06:32:18.040Z,64.50
2023-02-23T06:34:44.821Z,64.17
2023-02-23T06:37:12.027Z,67.90
2023-02-23T06:39:38.567Z,67.03
2023-02-23T06:42:05.070Z,73.23
2023-02-23T06:44:35.320Z,67.50
2023-02-23T06:47:05.632Z,66.93
2023-02-23T06:49:32.502Z,65.90
2023-02-23T06:51:59.105Z,70.10
2023-02-23T06:54:26.385Z,65.47
2023-02-23T06:56:53.240Z,64.70
2023-02-23T06:59:20.300Z,65.40
2023-02-23T07:01:46.854Z,66.97
2023-02-23T07:04:16.392Z,64.77
2023-02-23T07:06:43.376Z,62.70
2023-02-23T07:09:09.949Z,62.77
2023-02-23T07:11:36.496Z,65.07
2023-02-23T07:14:03.040Z,63.40
2023-02-23T07:16:29.774Z,67.57
2023-02-23T07:18:56.344Z,63.40
2023-02-23T07:21:22.858Z,66.07
2023-02-23T07:23:50.013Z,65.93
2023-02-23T07:26:18.436Z,69.63
2023-02-23T07:28:45.411Z,65.50
2023-02-23T07:31:12.045Z,66.07
2023-02-23T07:33:38.588Z,67.93
2023-02-23T07:36:05.617Z,67.07
2023-02-23T07:38:32.227Z,66.70
2023-02-23T07:40:58.766Z,67.87
2023-02-23T07:43:25.316Z,73.83
2023-02-23T07:45:52.390Z,72.03
2023-02-23T07:48:19.551Z,74.27
2023-02-23T07:50:46.052Z,76.43
2023-02-23T07:53:13.010Z,70.37
2023-02-23T07:55:40.202Z,73.27
2023-02-23T07:58:07.765Z,74.30
2023-02-23T08:00:36.515Z,76.63
2023-02-23T08:03:03.057Z,78.83
2023-02-23T08:05:29.740Z,74.77
2023-02-23T08:07:57.872Z,83.60
2023-02-23T08:10:24.515Z,79.53
2023-02-23T08:12:51.086Z,76.63
2023-02-23T08:15:18.136Z,72.40
2023-02-23T08:17:44.650Z,72.83
2023-02-23T08:20:11.573Z,73.10
2023-02-23T08:22:49.001Z,71.43
2023-02-23T08:25:17.300Z,71.37
2023-02-23T08:27:43.823Z,70.70
2023-02-23T08:30:11.080Z,72.80
2023-02-23T08:32:37.698Z,69.10
2023-02-23T08:35:04.890Z,67.47
2023-02-23T08:37:31.795Z,70.57
2023-02-23T08:39:59.216Z,73.50
2023-02-23T08:42:25.731Z,70.33
2023-02-23T08:44:52.690Z,72.67
2023-02-23T08:47:23.626Z,73.10
2023-02-23T08:49:50.717Z,68.17
2023-02-23T08:52:17.859Z,68.37
2023-02-23T08:54:44.358Z,69.37
2023-02-23T08:57:12.614Z,63.70
2023-02-23T08:59:41.110Z,65.33
2023-02-23T09:02:12.040Z,68.90
2023-02-23T09:04:41.755Z,66.10
2023-02-23T09:07:10.343Z,66.57
2023-02-23T09:09:36.874Z,66.63
2023-02-23T09:12:03.490Z,69.07
2023-02-23T09:14:30.348Z,70.93
2023-02-23T09:16:56.849Z,69.70
2023-02-23T09:19:23.375Z,68.63
2023-02-23T09:21:49.875Z,70.27
2023-02-23T09:24:18.546Z,69.40
2023-02-23T09:26:45.984Z,69.07
2023-02-23T09:29:12.626Z,64.93
2023-02-23T09:31:39.393Z,62.27
2023-02-23T09:34:06.003Z,65.30
2023-02-23T09:36:32.531Z,67.27
2023-02-23T09:38:59.476Z,64.47
2023-02-23T09:41:25.903Z,66.20
2023-02-23T09:44:11.984Z,71.97
2023-02-23T09:47:05.534Z,66.10
2023-02-23T09:49:35.402Z,60.20
2023-02-23T09:52:03.875Z,57.63
2023-02-23T09:54:33.567Z,62.27
2023-02-23T09:57:07.427Z,58.53
2023-02-23T09:59:36.129Z,54.83
2023-02-23T10:02:19.320Z,53.47
2023-02-23T10:04:50.241Z,53.23
2023-02-23T10:07:26.872Z,55.50
2023-02-23T10:10:12.879Z,52.27
2023-02-23T10:12:39.322Z,54.80
2023-02-23T10:15:33.546Z,54.97
2023-02-23T10:18:45.028Z,50.67
2023-02-23T10:21:20.794Z,51.23
2023-02-23T10:24:01.532Z,49.37
2023-02-23T10:26:38.955Z,51.70
2023-02-23T10:29:25.545Z,52.63
2023-02-23T10:31:57.195Z,46.57
2023-02-23T10:34:24.678Z,51.50
2023-02-23T10:37:02.098Z,46.13
2023-02-23T10:39:30.112Z,48.83
2023-02-23T10:41:58.488Z,46.53
2023-02-23T10:44:27.432Z,45.00
2023-02-23T10:47:06.271Z,45.30
2023-02-23T10:49:40.690Z,48.50
2023-02-23T10:52:13.572Z,45.07
2023-02-23T10:54:48.458Z,40.63
2023-02-23T10:57:30.641Z,43.17
2023-02-23T11:00:20.291Z,42.17
2023-02-23T11:02:47.844Z,44.27
2023-02-23T11:05:31.907Z,44.73
2023-02-23T11:08:10.594Z,47.40
2023-02-23T11:10:37.701Z,46.10
2023-02-23T11:13:04.226Z,45.93
2023-02-23T11:15:49.435Z,49.43
2023-02-23T11:18:23.243Z,49.93
2023-02-23T11:20:50.457Z,48.50
2023-02-23T11:23:34.621Z,50.23
2023-02-23T11:26:18.461Z,49.50
2023-02-23T11:28:53.098Z,49.17
2023-02-23T11:31:22.851Z,45.00
2023-02-23T11:33:50.273Z,48.47
2023-02-23T11:36:37.175Z,47.47
2023-02-23T11:39:08.046Z,48.00
2023-02-23T11:41:37.097Z,43.10
2023-02-23T11:44:06.282Z,45.73
2023-02-23T11:46:36.957Z,43.20
2023-02-23T11:49:06.954Z,43.50
2023-02-23T11:51:39.170Z,43.00
2023-02-23T11:54:07.466Z,39.10
2023-02-23T11:56:35.402Z,41.40
2023-02-23T11:59:07.286Z,38.97
2023-02-23T12:01:45.555Z,41.90
2023-02-23T12:04:33.865Z,37.00
2023-02-23T12:07:18.807Z,35.10
2023-02-23T12:09:47.359Z,33.23
2023-02-23T12:12:18.197Z,31.10
2023-02-23T12:14:57.481Z,30.53
2023-02-23T12:17:27.260Z,29.40
2023-02-23T12:20:14.121Z,33.40
2023-02-23T12:22:45.849Z,30.77
2023-02-23T12:25:33.583Z,27.93
2023-02-23T12:28:18.225Z,29.00
2023-02-23T12:30:52.277Z,27.87
2023-02-23T12:33:27.024Z,24.93
2023-02-23T12:35:59.547Z,25.70
2023-02-23T12:38:48.719Z,25.33
2023-02-23T12:41:38.574Z,25.30
2023-02-23T12:44:15.263Z,24.27
2023-02-23T12:46:48.922Z,23.40
2023-02-23T12:49:35.910Z,22.27
2023-02-23T12:52:17.886Z,24.63
2023-02-23T12:54:46.807Z,23.50
2023-02-23T12:57:19.520Z,23.43
2023-02-23T13:00:24.093Z,24.07
2023-02-23T13:03:02.976Z,26.27
2023-02-23T13:05:34.507Z,23.80
2023-02-23T13:08:27.396Z,24.60
2023-02-23T13:11:06.061Z,25.60
2023-02-23T13:13:50.610Z,26.10
2023-02-23T13:16:42.277Z,23.93
2023-02-23T13:19:15.231Z,27.67
2023-02-23T13:21:44.506Z,23.87
2023-02-23T13:24:24.370Z,24.10
2023-02-23T13:27:03.799Z,25.00
2023-02-23T13:29:39.900Z,22.90
2023-02-23T13:32:17.853Z,25.17
2023-02-23T13:35:00.626Z,23.80
2023-02-23T13:37:39.419Z,23.90
2023-02-23T13:40:15.938Z,23.50
2023-02-23T13:42:53.142Z,22.53
2023-02-23T13:45:26.086Z,22.00
2023-02-23T13:47:55.946Z,22.37
2023-02-23T13:50:49.329Z,23.53
2023-02-23T13:53:33.042Z,24.90
2023-02-23T13:56:04.168Z,23.73
2023-02-23T13:58:32.329Z,22.50
2023-02-23T14:01:21.381Z,22.17
2023-02-23T14:03:55.106Z,22.50
2023-02-23T14:06:25.638Z,20.17
2023-02-23T14:09:00.735Z,22.87
2023-02-23T14:11:37.761Z,23.87
2023-02-23T14:14:04.659Z,23.60
2023-02-23T14:16:31.415Z,22.00
2023-02-23T14:19:03.924Z,22.57
2023-02-23T14:21:33.457Z,21.30
2023-02-23T14:24:21.563Z,20.77
2023-02-23T14:27:40.207Z,21.80
2023-02-23T14:30:10.791Z,21.83
2023-02-23T14:32:43.003Z,21.60
2023-02-23T14:35:47.453Z,19.80
2023-02-23T14:38:47.926Z,21.63
2023-02-23T14:41:21.787Z,22.47
2023-02-23T14:43:52.796Z,19.20
2023-02-23T14:46:25.213Z,20.90
2023-02-23T14:49:12.361Z,19.87
2023-02-23T14:51:47.952Z,20.47
2023-02-23T14:54:23.867Z,20.67
2023-02-23T14:56:53.144Z,21.87
2023-02-23T14:59:27.035Z,22.80
2023-02-23T15:01:54.545Z,21.57
2023-02-23T15:04:24.343Z,21.97
2023-02-23T15:06:54.680Z,22.17
2023-02-23T15:09:42.594Z,21.53
2023-02-23T15:12:14.974Z,22.20
2023-02-23T15:14:41.825Z,20.40
2023-02-23T15:17:14.117Z,21.90
2023-02-23T15:19:40.656Z,22.03
2023-02-23T15:22:07.382Z,21.50
2023-02-23T15:24:43.334Z,20.97
2023-02-23T15:27:23.564Z,21.70
2023-02-23T15:29:50.711Z,21.87
2023-02-23T15:32:24.903Z,23.10
2023-02-23T15:34:53.364Z,24.27
2023-02-23T15:37:26.722Z,22.47
2023-02-23T15:39:56.963Z,24.00
2023-02-23T15:42:26.529Z,24.63
2023-02-23T15:44:59.592Z,21.77
2023-02-23T15:47:31.619Z,26.83
2023-02-23T15:50:06.166Z,23.90
2023-02-23T15:52:35.241Z,24.47
2023-02-23T15:55:06.956Z,21.57
2023-02-23T15:57:49.682Z,25.00
2023-02-23T16:00:32.898Z,22.33
2023-02-23T16:03:02.570Z,22.23
2023-02-23T16:05:41.765Z,24.03
2023-02-23T16:08:27.621Z,22.50
2023-02-23T16:11:02.351Z,22.03
2023-02-23T16:13:29.069Z,22.63
2023-02-23T16:15:55.878Z,22.53
2023-02-23T16:18:33.061Z,22.17
2023-02-23T16:20:59.700Z,22.97
2023-02-23T16:23:34.058Z,23.10
2023-02-23T16:26:12.446Z,22.93
2023-02-23T16:28:44.682Z,22.10
2023-02-23T16:31:13.354Z,21.93
2023-02-23T16:33:56.841Z,22.23
2023-02-23T16:36:25.138Z,23.57
2023-02-23T16:38:59.964Z,24.30
2023-02-23T16:41:33.724Z,25.50
2023-02-23T16:44:02.531Z,24.70
2023-02-23T16:46:37.705Z,26.73
2023-02-23T16:49:10.421Z,25.43
2023-02-23T16:51:37.044Z,25.57
2023-02-23T16:54:03.984Z,27.07
2023-02-23T16:56:31.209Z,26.87
2023-02-23T16:59:01.316Z,26.97
2023-02-23T17:01:28.089Z,26.87
2023-02-23T17:03:54.600Z,27.70
2023-02-23T17:06:22.437Z,25.50
2023-02-23T17:08:57.367Z,26.47
2023-02-23T17:11:24.536Z,26.93
2023-02-23T17:13:51.189Z,29.00
2023-02-23T17:16:21.258Z,27.73
2023-02-23T17:18:48.876Z,30.00
2023-02-23T17:21:16.238Z,27.60
2023-02-23T17:23:50.791Z,29.70
2023-02-23T17:26:20.503Z,26.80
2023-02-23T17:28:51.524Z,28.40
2023-02-23T17:31:20.022Z,27.83
2023-02-23T17:33:47.493Z,26.07
2023-02-23T17:36:17.013Z,24.00
2023-02-23T17:38:44.837Z,25.87
2023-02-23T17:41:19.616Z,25.60
2023-02-23T17:43:46.627Z,25.13
2023-02-23T17:46:13.400Z,23.93
2023-02-23T17:48:40.798Z,25.17
2023-02-23T17:51:09.130Z,23.77
2023-02-23T17:53:36.277Z,24.57
2023-02-23T17:56:04.491Z,25.93
2023-02-23T17:58:33.962Z,27.20
2023-02-23T18:01:02.553Z,24.90
2023-02-23T18:03:34.902Z,25.47
2023-02-23T18:06:12.819Z,26.30
2023-02-23T18:08:42.348Z,24.00
2023-02-23T18:11:09.506Z,25.47
2023-02-23T18:13:36.248Z,24.03
2023-02-23T18:16:10.497Z,25.10
2023-02-23T18:18:42.606Z,24.60
2023-02-23T18:21:14.843Z,23.53
2023-02-23T18:23:42.275Z,24.30
2023-02-23T18:26:11.785Z,24.40
2023-02-23T18:28:40.574Z,22.60
2023-02-23T18:31:07.122Z,21.43
2023-02-23T18:33:35.879Z,21.70
2023-02-23T18:36:03.877Z,23.73
2023-02-23T18:38:30.408Z,24.43
2023-02-23T18:40:57.263Z,24.40
2023-02-23T18:43:23.821Z,24.23
2023-02-23T18:45:50.399Z,24.10
2023-02-23T18:48:16.937Z,23.57
2023-02-23T18:50:43.421Z,22.67
2023-02-23T18:53:10.890Z,24.10
2023-02-23T18:55:37.844Z,26.43
2023-02-23T18:58:05.644Z,26.43
2023-02-23T19:00:42.552Z,29.10
2023-02-23T19:03:10.285Z,27.50
2023-02-23T19:05:37.782Z,27.80
2023-02-23T19:08:08.550Z,29.67
2023-02-23T19:10:36.319Z,30.37
2023-02-23T19:13:02.897Z,27.00
2023-02-23T19:15:30.903Z,27.17
2023-02-23T19:17:57.466Z,27.93
2023-02-23T19:20:24.504Z,26.53
2023-02-23T19:22:51.141Z,26.00
2023-02-23T19:25:17.798Z,23.43
2023-02-23T19:27:44.294Z,23.97
2023-02-23T19:30:11.489Z,23.40
2023-02-23T19:32:39.918Z,23.97
2023-02-23T19:35:09.771Z,23.60
2023-02-23T19:37:39.660Z,24.30
2023-02-23T19:40:06.776Z,23.67
2023-02-23T19:42:35.100Z,23.20
2023-02-23T19:45:01.675Z,22.70
2023-02-23T19:47:28.328Z,25.50
2023-02-23T19:49:55.039Z,22.90
2023-02-23T19:52:23.060Z,25.80
2023-02-23T19:54:49.789Z,24.00
2023-02-23T19:57:16.257Z,27.43
2023-02-23T19:59:42.912Z,25.50
2023-02-23T20:02:10.941Z,26.50
2023-02-23T20:04:37.577Z,25.67
2023-02-23T20:07:04.142Z,26.60
2023-02-23T20:09:30.628Z,26.13
2023-02-23T20:11:57.304Z,29.37
2023-02-23T20:14:24.900Z,28.60
2023-02-23T20:16:51.449Z,27.90
2023-02-23T20:19:19.600Z,29.13
2023-02-23T20:21:46.153Z,28.40
2023-02-23T20:24:13.158Z,26.40
2023-02-23T20:26:40.076Z,26.07
2023-02-23T20:29:10.573Z,28.20
2023-02-23T20:31:38.551Z,25.60
2023-02-23T20:34:09.835Z,26.80
2023-02-23T20:36:36.952Z,26.60
2023-02-23T20:39:16.746Z,27.90
2023-02-23T20:41:45.590Z,25.00
2023-02-23T20:44:12.807Z,26.43
2023-02-23T20:46:40.364Z,28.10
2023-02-23T20:49:11.296Z,27.50
2023-02-23T20:51:39.382Z,27.40
2023-02-23T20:54:07.769Z,25.80
2023-02-23T20:56:34.657Z,26.33
2023-02-23T20:59:02.333Z,26.80
2023-02-23T21:01:28.847Z,26.07
2023-02-23T21:03:56.531Z,27.50
2023-02-23T21:06:24.486Z,25.30
2023-02-23T21:08:55.602Z,26.60
2023-02-23T21:11:27.085Z,29.03
2023-02-23T21:13:53.884Z,29.57
2023-02-23T21:16:23.650Z,26.37
2023-02-23T21:19:03.877Z,27.80
2023-02-23T21:21:41.075Z,21.30
2023-02-23T21:24:08.039Z,13.50
2023-02-23T21:26:35.067Z,11.80
2023-02-23T21:29:02.397Z,10.20
2023-02-23T21:31:29.003Z,9.40
2023-02-23T21:33:55.579Z,11.27
2023-02-23T21:36:22.458Z,10.33
2023-02-23T21:38:49.455Z,9.23
2023-02-23T21:41:16.087Z,7.43
2023-02-23T21:43:43.671Z,8.20
2023-02-23T21:46:13.146Z,8.53
2023-02-23T21:48:40.147Z,9.20
2023-02-23T21:51:08.732Z,7.90
2023-02-23T21:53:37.556Z,7.50
2023-02-23T21:56:20.223Z,9.00
2023-02-23T21:58:56.339Z,8.90
2023-02-23T22:01:25.594Z,8.60
2023-02-23T22:03:54.907Z,10.03
2023-02-23T22:06:27.385Z,9.47
2023-02-23T22:08:54.911Z,9.77
2023-02-23T22:11:24.714Z,11.30
2023-02-23T22:13:59.586Z,11.80
2023-02-23T22:16:30.544Z,11.80
2023-02-23T22:18:58.266Z,10.60
2023-02-23T22:21:24.830Z,11.87
2023-02-23T22:23:53.310Z,11.73
2023-02-23T22:26:20.092Z,11.60
2023-02-23T22:28:46.584Z,11.37
2023-02-23T22:31:13.988Z,10.87
2023-02-23T22:33:42.960Z,10.70
2023-02-23T22:36:12.964Z,9.50
2023-02-23T22:38:41.206Z,9.20
2023-02-23T22:41:11.592Z,10.70
2023-02-23T22:43:38.896Z,9.10
2023-02-23T22:46:07.662Z,8.30
2023-02-23T22:48:35.198Z,10.30
2023-02-23T22:51:02.342Z,9.67
2023-02-23T22:53:29.274Z,9.57
2023-02-23T22:55:56.355Z,10.00
2023-02-23T22:58:24.710Z,9.90
2023-02-23T23:01:06.189Z,9.80
2023-02-23T23:03:40.439Z,8.07
2023-02-23T23:06:09.527Z,7.00
2023-02-23T23:08:40.086Z,6.80
2023-02-23T23:11:09.651Z,7.10
2023-02-23T23:14:01.820Z,7.13
2023-02-23T23:16:33.785Z,5.90
2023-02-23T23:19:03.597Z,5.13
2023-02-23T23:21:32.660Z,5.60
2023-02-23T23:24:01.730Z,5.47
2023-02-23T23:26:29.239Z,5.10
2023-02-23T23:28:58.426Z,5.27
2023-02-23T23:31:29.552Z,5.80
2023-02-23T23:34:00.165Z,5.03
2023-02-23T23:36:32.231Z,5.83
2023-02-23T23:38:59.398Z,5.37
2023-02-23T23:41:27.533Z,5.93
2023-02-23T23:43:56.884Z,6.27
2023-02-23T23:46:29.251Z,6.70
2023-02-23T23:49:02.136Z,6.57
2023-02-23T23:51:37.182Z,5.73
2023-02-23T23:54:04.288Z,5.43
2023-02-23T23:56:30.851Z,7.00
2023-02-23T23:58:58.754Z,5.50
